Time;durP1;ratioP1;P1;durP2;ratioP2;P2;SDS_P1;SDS_P2;PMS_P1;PMS_P2;Temp;Humidity;BMP_temperature;BMP_pressure;BME280_temperature;BME280_humidity;BME280_pressure;Samples;Min_cycle;Max_cycle;Signal;HPM_P1;HPM_P2
2022/08/02 00:01:40;;;;;;;7.15;2.88;;;16.40;99.90;;;;;;4995674;28;20116;-45
2022/08/02 00:04:05;;;;;;;8.77;2.92;;;16.30;99.90;;;;;;5013045;28;20408;-45
2022/08/02 00:06:31;;;;;;;7.93;2.95;;;16.40;99.90;;;;;;5013396;28;20038;-50
2022/08/02 00:08:57;;;;;;;9.73;3.35;;;16.30;99.90;;;;;;5013225;28;20037;-51
2022/08/02 00:11:22;;;;;;;8.57;2.90;;;16.20;99.90;;;;;;5013403;28;20038;-49
2022/08/02 00:13:48;;;;;;;10.65;2.95;;;16.30;99.90;;;;;;5012748;28;20041;-46
2022/08/02 00:16:14;;;;;;;8.20;2.55;;;16.10;99.90;;;;;;5012599;28;20496;-47
2022/08/02 00:18:40;;;;;;;8.65;2.58;;;16.30;99.90;;;;;;5013355;28;20050;-52
2022/08/02 00:21:05;;;;;;;7.93;2.83;;;16.20;99.90;;;;;;5012715;28;20033;-47
2022/08/02 00:23:31;;;;;;;7.10;2.60;;;16.20;99.90;;;;;;5012783;28;20477;-47
2022/08/02 00:25:57;;;;;;;6.05;2.10;;;16.10;99.90;;;;;;5013044;28;20040;-48
2022/08/02 00:28:24;;;;;;;9.95;2.67;;;16.50;99.90;;;;;;5012834;28;20085;-50
2022/08/02 00:30:50;;;;;;;7.07;2.28;;;16.10;99.90;;;;;;5013036;28;20444;-49
2022/08/02 00:33:16;;;;;;;8.52;2.97;;;16.00;99.90;;;;;;5012636;28;20077;-47
2022/08/02 00:35:41;;;;;;;7.88;2.38;;;16.00;99.90;;;;;;4995050;28;20045;-52
2022/08/02 00:38:07;;;;;;;10.85;2.80;;;16.00;99.90;;;;;;5012348;28;20404;-52
2022/08/02 00:40:33;;;;;;;8.18;2.60;;;15.90;99.90;;;;;;5012523;28;20504;-51
2022/08/02 00:43:17;;;;;;;9.30;2.45;;;15.80;99.90;;;;;;4995276;28;20037;-47
2022/08/02 00:45:44;;;;;;;6.50;2.47;;;15.80;99.90;;;;;;5012521;28;20415;-46
2022/08/02 00:48:11;;;;;;;6.65;2.75;;;15.70;99.90;;;;;;5012750;28;20381;-49
2022/08/02 00:50:38;;;;;;;8.35;2.80;;;15.70;99.90;;;;;;5012837;28;20140;-51
2022/08/02 00:53:05;;;;;;;8.20;3.25;;;15.60;99.90;;;;;;5011292;28;20037;-45
2022/08/02 00:55:31;;;;;;;8.65;2.75;;;15.60;99.90;;;;;;5012526;28;20068;-50
2022/08/02 00:57:57;;;;;;;9.65;3.00;;;15.60;99.90;;;;;;5012579;28;20041;-49
2022/08/02 01:00:22;;;;;;;8.25;2.63;;;15.50;99.90;;;;;;5012555;28;20037;-51
2022/08/02 01:02:48;;;;;;;6.68;2.65;;;15.50;99.90;;;;;;5012652;28;20037;-53
2022/08/02 01:05:15;;;;;;;7.05;2.47;;;15.40;99.90;;;;;;5011974;28;20033;-54
2022/08/02 01:07:40;;;;;;;7.70;2.97;;;15.30;99.90;;;;;;5012392;28;20034;-50
2022/08/02 01:10:07;;;;;;;7.72;2.88;;;15.40;99.90;;;;;;5012436;28;20041;-52
2022/08/02 01:12:33;;;;;;;9.35;3.28;;;15.20;99.90;;;;;;5012217;28;20037;-45
2022/08/02 01:15:03;;;;;;;8.60;3.25;;;15.20;99.90;;;;;;5011488;28;20136;-48
2022/08/02 01:17:59;;;;;;;9.25;3.25;;;15.20;99.90;;;;;;5010834;28;20121;-49
2022/08/02 01:20:34;;;;;;;8.77;2.95;;;15.20;99.90;;;;;;5011289;28;20037;-52
2022/08/02 01:23:37;;;;;;;8.18;3.63;;;15.00;99.90;;;;;;5012104;28;20373;-50
2022/08/02 01:26:43;;;;;;;8.25;3.20;;;15.10;99.90;;;;;;4994177;28;20048;-51
2022/08/02 01:29:30;;;;;;;9.73;3.70;;;15.10;99.90;;;;;;4995533;28;20041;-51
2022/08/02 01:32:05;;;;;;;9.85;3.38;;;15.00;99.90;;;;;;5010669;28;20493;-52
2022/08/02 01:34:48;;;;;;;8.07;3.33;;;15.00;99.90;;;;;;5010524;28;20038;-51
2022/08/02 01:37:35;;;;;;;9.48;3.50;;;15.00;99.90;;;;;;5011491;28;20033;-52
2022/08/02 01:40:08;;;;;;;10.05;3.08;;;14.90;99.90;;;;;;5010636;28;20381;-53
2022/08/02 01:42:36;;;;;;;8.57;3.35;;;14.80;99.90;;;;;;4993629;28;20053;-49
2022/08/02 01:45:03;;;;;;;9.70;3.65;;;14.80;99.90;;;;;;4991876;28;20536;-51
2022/08/02 01:47:34;;;;;;;8.32;3.30;;;14.80;99.90;;;;;;4992153;28;20358;-50
2022/08/02 01:50:01;;;;;;;8.50;3.70;;;14.80;99.90;;;;;;5010522;28;20042;-47
2022/08/02 01:52:44;;;;;;;10.18;4.03;;;14.70;99.90;;;;;;4990952;28;20049;-48
2022/08/02 01:55:20;;;;;;;10.77;3.88;;;14.70;99.90;;;;;;4992222;28;20046;-50
2022/08/02 01:57:52;;;;;;;9.23;3.70;;;14.80;99.90;;;;;;5010788;28;20416;-48
2022/08/02 02:00:21;;;;;;;9.82;3.50;;;14.60;99.90;;;;;;5011415;28;20038;-47
2022/08/02 02:02:48;;;;;;;6.82;3.30;;;14.60;99.90;;;;;;5011178;28;20048;-51
2022/08/02 02:05:18;;;;;;;10.07;4.13;;;14.60;99.90;;;;;;4993576;28;20392;-51
2022/08/02 02:07:45;;;;;;;10.00;3.65;;;14.70;99.90;;;;;;5011416;28;20474;-48
2022/08/02 02:10:15;;;;;;;7.57;3.58;;;14.70;99.90;;;;;;4992908;28;20043;-47
2022/08/02 02:12:43;;;;;;;6.70;3.45;;;14.60;99.90;;;;;;5009699;28;20041;-49
2022/08/02 02:15:11;;;;;;;12.18;3.97;;;14.60;99.90;;;;;;5010442;28;20062;-52
2022/08/02 02:17:43;;;;;;;7.22;3.67;;;14.60;99.90;;;;;;5010841;28;20049;-49
2022/08/02 02:20:15;;;;;;;9.15;3.65;;;14.60;99.90;;;;;;4993479;28;20041;-46
2022/08/02 02:22:42;;;;;;;10.50;4.00;;;14.50;99.90;;;;;;5009766;28;20042;-52
2022/08/02 02:25:09;;;;;;;9.38;3.90;;;14.50;99.90;;;;;;5010842;28;20037;-50
2022/08/02 02:27:38;;;;;;;10.00;4.20;;;14.40;99.90;;;;;;5011062;28;20500;-46
2022/08/02 02:30:05;;;;;;;8.63;3.63;;;14.40;99.90;;;;;;4992170;28;20030;-51
2022/08/02 02:32:33;;;;;;;7.40;3.47;;;14.30;99.90;;;;;;4991331;28;20034;-51
2022/08/02 02:35:02;;;;;;;7.97;3.47;;;14.30;99.90;;;;;;4975238;28;20050;-47
2022/08/02 02:37:29;;;;;;;9.55;3.47;;;14.30;99.90;;;;;;5010235;28;20042;-50
2022/08/02 02:39:56;;;;;;;9.80;3.22;;;14.30;99.90;;;;;;5011024;28;20033;-49
2022/08/02 02:42:29;;;;;;;9.90;3.72;;;14.30;99.90;;;;;;4993140;28;20046;-50
2022/08/02 02:44:55;;;;;;;10.93;3.53;;;14.30;99.90;;;;;;4992826;28;20048;-52
2022/08/02 02:47:21;;;;;;;11.70;3.67;;;14.30;99.90;;;;;;5014833;28;20037;-50
2022/08/02 02:49:49;;;;;;;9.98;3.80;;;14.20;99.90;;;;;;5015131;28;20092;-47
2022/08/02 02:52:16;;;;;;;11.13;3.63;;;14.20;99.90;;;;;;5014427;28;20049;-48
2022/08/02 02:54:45;;;;;;;9.38;3.55;;;14.20;99.90;;;;;;5014915;28;20037;-48
2022/08/02 02:57:12;;;;;;;7.97;3.70;;;14.20;99.90;;;;;;5014983;28;20107;-49
2022/08/02 02:59:39;;;;;;;9.70;3.88;;;14.30;99.90;;;;;;5014971;28;20030;-50
2022/08/02 03:02:05;;;;;;;10.15;3.72;;;14.20;99.90;;;;;;5014720;28;20033;-48
2022/08/02 03:04:32;;;;;;;9.13;3.90;;;14.20;99.90;;;;;;5014542;28;20117;-49
2022/08/02 03:06:59;;;;;;;9.27;3.90;;;14.20;99.90;;;;;;5014336;28;20038;-47
2022/08/02 03:09:25;;;;;;;8.68;3.58;;;14.10;99.90;;;;;;5013339;28;20116;-50
2022/08/02 03:11:53;;;;;;;6.93;3.22;;;14.10;99.90;;;;;;5014547;28;20442;-51
2022/08/02 03:14:19;;;;;;;7.38;3.63;;;14.10;99.90;;;;;;5014409;28;20046;-50
2022/08/02 03:16:51;;;;;;;8.13;3.67;;;14.20;99.90;;;;;;5014160;28;20061;-50
2022/08/02 03:19:19;;;;;;;8.93;3.60;;;14.10;99.90;;;;;;5014364;28;20041;-47
2022/08/02 03:21:46;;;;;;;8.93;3.83;;;14.20;99.90;;;;;;5014431;28;20077;-48
2022/08/02 03:24:12;;;;;;;9.60;3.78;;;14.10;99.90;;;;;;5014147;28;20076;-50
2022/08/02 03:26:38;;;;;;;8.82;3.53;;;14.10;99.90;;;;;;4996098;28;20038;-52
2022/08/02 03:29:05;;;;;;;9.80;3.67;;;14.10;99.90;;;;;;5014437;28;20037;-49
2022/08/02 03:31:31;;;;;;;10.95;3.70;;;14.00;99.90;;;;;;5014034;28;20095;-49
2022/08/02 03:33:58;;;;;;;9.15;3.78;;;14.00;99.90;;;;;;5014195;28;20423;-51
2022/08/02 03:36:27;;;;;;;10.07;4.15;;;14.00;99.90;;;;;;5014164;28;20045;-48
2022/08/02 03:38:54;;;;;;;10.65;4.28;;;14.00;99.90;;;;;;5013031;28;20081;-50
2022/08/02 03:41:21;;;;;;;9.43;4.00;;;14.00;99.90;;;;;;5013900;28;20037;-47
2022/08/02 03:43:49;;;;;;;7.05;3.97;;;14.00;99.90;;;;;;5013892;28;20048;-48
2022/08/02 03:46:18;;;;;;;10.70;3.90;;;14.00;99.90;;;;;;5013345;28;20120;-52
2022/08/02 03:48:45;;;;;;;11.10;3.97;;;14.00;99.90;;;;;;5013711;28;20042;-50
2022/08/02 03:51:12;;;;;;;9.05;3.45;;;13.90;99.90;;;;;;5013829;28;20054;-48
2022/08/02 03:53:38;;;;;;;11.77;4.15;;;13.90;99.90;;;;;;5013609;28;20492;-46
2022/08/02 03:56:05;;;;;;;10.30;4.13;;;14.00;99.90;;;;;;5013298;28;20038;-48
2022/08/02 03:58:32;;;;;;;9.13;4.20;;;13.90;99.90;;;;;;4999691;28;20038;-51
2022/08/02 04:00:58;;;;;;;9.27;3.97;;;13.90;99.90;;;;;;4993717;28;20044;-48
2022/08/02 04:03:24;;;;;;;9.27;4.00;;;13.90;99.90;;;;;;4994904;28;20030;-49
2022/08/02 04:05:50;;;;;;;7.78;4.22;;;13.90;99.90;;;;;;4995903;28;20113;-50
2022/08/02 04:08:16;;;;;;;10.82;4.20;;;14.00;99.90;;;;;;5013023;28;20046;-47
2022/08/02 04:13:33;;;;;;;9.63;4.25;;;14.00;99.90;;;;;;5013278;28;20092;-49
2022/08/02 04:16:11;;;;;;;11.23;4.45;;;13.90;99.90;;;;;;5012611;28;20065;-49
2022/08/02 04:18:48;;;;;;;11.00;4.18;;;13.90;99.90;;;;;;5012023;28;20042;-46
2022/08/02 04:21:17;;;;;;;10.88;4.15;;;13.90;99.90;;;;;;5012972;28;20034;-45
2022/08/02 04:23:46;;;;;;;9.02;4.20;;;13.90;99.90;;;;;;5012680;28;20046;-51
2022/08/02 04:26:12;;;;;;;11.52;3.95;;;13.90;99.90;;;;;;5011892;28;20050;-49
2022/08/02 04:28:40;;;;;;;11.15;4.72;;;13.90;99.90;;;;;;5012687;28;20042;-51
2022/08/02 04:31:06;;;;;;;9.57;4.07;;;13.90;99.90;;;;;;4995320;28;20125;-46
2022/08/02 04:33:32;;;;;;;7.57;4.18;;;13.90;99.90;;;;;;4994922;28;20049;-52
2022/08/02 04:35:58;;;;;;;9.07;3.95;;;13.90;99.90;;;;;;5012820;28;20056;-52
2022/08/02 04:38:25;;;;;;;9.98;4.82;;;13.90;99.90;;;;;;5012472;28;20046;-50
2022/08/02 04:40:52;;;;;;;9.07;4.30;;;14.00;99.90;;;;;;5012673;28;20042;-50
2022/08/02 04:43:19;;;;;;;10.25;4.20;;;14.00;99.90;;;;;;5012914;28;20042;-48
2022/08/02 04:45:48;;;;;;;8.43;4.50;;;14.00;99.90;;;;;;5012349;28;20361;-47
2022/08/02 04:48:14;;;;;;;12.73;5.10;;;14.00;99.90;;;;;;5011439;28;20067;-51
2022/08/02 04:50:39;;;;;;;10.45;4.38;;;14.00;99.90;;;;;;5012830;28;20120;-50
2022/08/02 04:53:05;;;;;;;7.30;3.90;;;14.00;99.90;;;;;;4994956;28;20050;-51
2022/08/02 04:55:31;;;;;;;10.40;4.30;;;14.10;99.90;;;;;;5012257;28;20044;-49
2022/08/02 04:57:58;;;;;;;7.38;4.38;;;14.00;99.90;;;;;;5012150;28;20172;-51
2022/08/02 05:00:25;;;;;;;9.95;4.28;;;14.10;99.90;;;;;;5012778;28;20037;-49
2022/08/02 05:02:51;;;;;;;9.00;4.47;;;14.10;99.90;;;;;;5012333;28;20030;-50
2022/08/02 05:05:17;;;;;;;11.27;4.40;;;14.20;99.90;;;;;;5012610;28;20034;-49
2022/08/02 05:07:44;;;;;;;7.75;4.00;;;14.20;99.90;;;;;;5011578;28;20477;-49
2022/08/02 05:10:09;;;;;;;7.40;4.03;;;14.10;99.90;;;;;;4994339;28;20053;-48
2022/08/02 05:12:37;;;;;;;6.68;3.63;;;14.20;99.90;;;;;;5012184;28;20038;-46
2022/08/02 05:15:03;;;;;;;9.55;4.07;;;14.30;99.90;;;;;;4993999;28;20497;-47
2022/08/02 05:17:29;;;;;;;8.02;4.05;;;14.40;99.90;;;;;;5012178;28;20042;-48
2022/08/02 05:19:55;;;;;;;10.93;4.60;;;14.40;99.90;;;;;;5012085;28;20133;-48
2022/08/02 05:22:20;;;;;;;9.07;4.28;;;14.40;99.90;;;;;;5011949;28;20034;-47
2022/08/02 05:24:46;;;;;;;9.77;4.07;;;14.40;99.90;;;;;;4994203;28;20042;-47
2022/08/02 05:27:11;;;;;;;10.63;4.53;;;14.60;99.90;;;;;;5011901;28;20362;-46
2022/08/02 05:29:37;;;;;;;7.85;4.15;;;14.50;99.90;;;;;;5011944;28;20473;-51
2022/08/02 05:32:03;;;;;;;9.77;4.43;;;14.60;99.90;;;;;;5011903;28;20050;-46
2022/08/02 05:34:29;;;;;;;10.27;4.10;;;14.60;99.90;;;;;;5011682;28;20069;-53
2022/08/02 05:36:54;;;;;;;7.57;3.80;;;14.70;99.90;;;;;;5011560;28;20107;-52
2022/08/02 05:39:20;;;;;;;9.23;4.10;;;14.80;99.90;;;;;;5011509;28;20120;-49
2022/08/02 05:41:46;;;;;;;8.00;4.25;;;14.80;99.90;;;;;;5011847;28;20446;-50
2022/08/02 05:44:11;;;;;;;7.80;3.70;;;14.90;99.90;;;;;;5011696;28;20144;-48
2022/08/02 05:46:37;;;;;;;7.50;4.22;;;15.00;99.90;;;;;;5011415;28;20041;-47
2022/08/02 05:49:03;;;;;;;8.20;3.63;;;15.00;99.90;;;;;;5011442;28;20044;-53
2022/08/02 05:51:35;;;;;;;9.93;4.30;;;15.10;99.90;;;;;;5011647;28;20512;-47
2022/08/02 05:54:26;;;;;;;9.23;4.63;;;15.10;99.90;;;;;;5011044;28;20042;-51
2022/08/02 05:57:10;;;;;;;10.48;4.60;;;15.30;99.90;;;;;;5011310;28;20049;-50
2022/08/02 05:59:53;;;;;;;17.23;3.88;;;15.40;99.90;;;;;;5011340;28;20041;-49
2022/08/02 06:02:42;;;;;;;6.90;4.03;;;15.50;99.90;;;;;;5011264;28;20042;-53
2022/08/02 06:05:08;;;;;;;9.25;4.22;;;15.60;99.90;;;;;;4992185;28;20425;-51
2022/08/02 06:07:35;;;;;;;7.50;3.95;;;15.60;99.90;;;;;;4991808;28;20041;-47
2022/08/02 06:10:05;;;;;;;13.30;4.60;;;15.70;99.90;;;;;;5007426;28;20038;-48
2022/08/02 06:12:48;;;;;;;10.20;4.57;;;15.80;99.90;;;;;;5010371;28;20053;-49
2022/08/02 06:15:16;;;;;;;7.88;4.28;;;15.90;99.90;;;;;;5008060;28;20165;-49
2022/08/02 06:17:43;;;;;;;9.38;3.85;;;15.90;99.90;;;;;;5009892;28;20045;-50
2022/08/02 06:20:14;;;;;;;8.50;3.92;;;16.00;99.90;;;;;;5010000;28;20046;-48
2022/08/02 06:22:43;;;;;;;7.78;3.88;;;16.10;99.90;;;;;;4992185;28;20137;-53
2022/08/02 06:25:12;;;;;;;7.88;3.85;;;16.10;99.90;;;;;;5010094;28;20448;-49
2022/08/02 06:27:40;;;;;;;10.75;3.78;;;16.20;99.90;;;;;;5010138;28;20124;-49
2022/08/02 06:30:08;;;;;;;10.52;4.20;;;16.30;99.90;;;;;;5009747;28;20705;-49
2022/08/02 06:32:34;;;;;;;10.18;4.55;;;16.30;99.90;;;;;;5009813;28;21026;-52
2022/08/02 06:35:01;;;;;;;8.25;3.90;;;16.40;99.90;;;;;;5008646;28;20053;-48
2022/08/02 06:37:57;;;;;;;8.23;3.88;;;16.50;99.90;;;;;;5009605;28;20733;-50
2022/08/02 06:40:31;;;;;;;7.88;3.92;;;16.50;99.90;;;;;;4992187;28;20045;-49
2022/08/02 06:43:24;;;;;;;8.30;3.38;;;16.60;99.90;;;;;;5008774;28;20100;-50
2022/08/02 06:45:50;;;;;;;9.75;4.28;;;16.70;99.90;;;;;;5007779;28;20112;-47
2022/08/02 06:48:16;;;;;;;10.32;3.90;;;16.70;99.90;;;;;;4991671;28;20176;-47
2022/08/02 06:50:43;;;;;;;8.27;3.90;;;16.80;99.90;;;;;;5010138;28;20103;-53
2022/08/02 06:53:09;;;;;;;7.18;3.55;;;16.90;99.90;;;;;;5009643;28;20473;-51
2022/08/02 06:55:35;;;;;;;7.30;3.75;;;17.00;99.90;;;;;;5010381;28;20481;-49
2022/08/02 06:58:02;;;;;;;8.27;3.60;;;17.10;99.90;;;;;;4991449;28;20041;-50
2022/08/02 07:00:28;;;;;;;8.77;3.30;;;17.20;99.90;;;;;;4996768;28;21044;-50
2022/08/02 07:02:54;;;;;;;6.80;3.47;;;17.30;99.90;;;;;;4982277;28;20048;-48
2022/08/02 07:05:20;;;;;;;9.57;3.72;;;17.40;99.90;;;;;;5000282;28;20034;-51
2022/08/02 07:07:46;;;;;;;10.07;3.30;;;17.50;99.90;;;;;;4998026;28;20041;-48
2022/08/02 07:10:13;;;;;;;7.18;3.45;;;17.60;99.90;;;;;;4997338;28;20041;-49
2022/08/02 07:12:39;;;;;;;9.20;3.97;;;17.70;99.90;;;;;;4999901;28;20117;-49
2022/08/02 07:15:07;;;;;;;6.93;3.20;;;17.70;99.90;;;;;;4998276;28;20401;-45
2022/08/02 07:17:33;;;;;;;8.38;3.10;;;17.70;99.90;;;;;;4998984;28;20133;-51
2022/08/02 07:20:00;;;;;;;6.30;3.15;;;17.80;99.90;;;;;;4999982;28;20026;-50
2022/08/02 07:22:27;;;;;;;10.30;3.63;;;17.80;99.90;;;;;;4997374;28;20042;-53
2022/08/02 07:24:55;;;;;;;8.43;4.07;;;17.90;99.90;;;;;;4997616;28;20045;-52
2022/08/02 07:27:21;;;;;;;7.85;3.03;;;18.00;99.90;;;;;;4998094;28;20052;-49
2022/08/02 07:29:46;;;;;;;7.53;3.50;;;18.10;99.90;;;;;;4998814;28;20033;-50
2022/08/02 07:32:15;;;;;;;6.93;3.30;;;18.20;99.90;;;;;;5000573;28;20145;-49
2022/08/02 07:34:42;;;;;;;8.02;3.60;;;18.20;99.90;;;;;;4985150;28;20481;-51
2022/08/02 07:37:08;;;;;;;8.18;3.10;;;18.30;99.90;;;;;;5001652;28;20034;-47
2022/08/02 07:39:33;;;;;;;9.77;3.22;;;18.40;99.90;;;;;;5002222;28;20042;-49
2022/08/02 07:42:02;;;;;;;7.47;2.90;;;18.60;99.90;;;;;;5002913;28;20407;-47
2022/08/02 07:44:33;;;;;;;8.50;3.13;;;18.80;99.90;;;;;;5002513;28;20038;-49
2022/08/02 07:47:00;;;;;;;7.00;2.63;;;18.80;99.90;;;;;;5000200;28;22692;-49
2022/08/02 07:49:26;;;;;;;6.90;2.80;;;19.00;99.90;;;;;;5001634;28;20030;-52
2022/08/02 07:51:52;;;;;;;9.80;2.75;;;19.00;99.90;;;;;;5001368;28;20497;-48
2022/08/02 07:54:18;;;;;;;7.45;2.80;;;19.20;99.90;;;;;;5002299;28;20099;-49
2022/08/02 07:56:43;;;;;;;8.02;3.03;;;19.20;99.90;;;;;;5002914;28;20473;-48
2022/08/02 07:59:09;;;;;;;11.13;3.35;;;19.30;99.90;;;;;;5001710;28;20038;-48
2022/08/02 08:01:36;;;;;;;7.15;3.10;;;19.40;99.90;;;;;;5001826;28;20092;-50
2022/08/02 08:04:02;;;;;;;9.10;3.15;;;19.50;99.90;;;;;;5002251;28;20058;-49
2022/08/02 08:06:28;;;;;;;6.85;2.90;;;19.70;99.90;;;;;;4987245;28;20101;-51
2022/08/02 08:08:54;;;;;;;6.43;2.90;;;19.80;99.90;;;;;;5004008;28;20378;-51
2022/08/02 08:11:20;;;;;;;7.40;2.72;;;19.80;99.90;;;;;;5004882;28;20042;-47
2022/08/02 08:13:45;;;;;;;5.68;3.47;;;19.90;99.90;;;;;;5004582;28;20056;-50
2022/08/02 08:16:11;;;;;;;8.50;3.05;;;20.00;99.90;;;;;;5002812;28;20140;-46
2022/08/02 08:18:37;;;;;;;10.55;3.30;;;20.10;99.90;;;;;;5004419;28;20447;-50
2022/08/02 08:21:03;;;;;;;8.38;3.53;;;20.10;99.90;;;;;;5003874;28;20030;-50
2022/08/02 08:23:29;;;;;;;6.18;3.30;;;20.10;99.90;;;;;;5003476;28;20060;-48
2022/08/02 08:25:54;;;;;;;7.15;3.60;;;20.20;99.90;;;;;;5002946;28;20038;-50
2022/08/02 08:28:20;;;;;;;7.65;3.67;;;20.30;99.90;;;;;;5001695;28;20032;-51
2022/08/02 08:30:48;;;;;;;10.02;3.30;;;20.40;99.90;;;;;;5002704;28;20112;-52
2022/08/02 08:33:14;;;;;;;6.88;3.00;;;20.50;99.90;;;;;;4970782;28;20433;-53
2022/08/02 08:35:40;;;;;;;10.27;3.72;;;20.60;99.90;;;;;;5005323;28;20045;-52
2022/08/02 08:38:07;;;;;;;9.52;3.08;;;20.80;99.90;;;;;;5001634;28;20049;-52
2022/08/02 08:40:32;;;;;;;6.97;2.85;;;20.90;99.90;;;;;;5003123;28;20042;-48
2022/08/02 08:42:58;;;;;;;8.38;3.10;;;20.90;99.90;;;;;;5002954;28;20354;-49
2022/08/02 08:45:24;;;;;;;6.97;2.95;;;21.00;99.90;;;;;;4985437;28;20120;-48
2022/08/02 08:48:04;;;;;;;9.43;3.33;;;21.20;99.90;;;;;;5003513;28;20045;-47
2022/08/02 08:50:34;;;;;;;8.30;3.33;;;21.30;99.90;;;;;;4984494;28;20049;-51
2022/08/02 08:53:03;;;;;;;7.63;2.90;;;21.40;99.90;;;;;;5001794;28;20038;-49
2022/08/02 08:55:30;;;;;;;5.45;3.15;;;21.50;99.90;;;;;;5001473;28;20061;-50
2022/08/02 08:57:58;;;;;;;7.00;2.75;;;21.70;99.90;;;;;;4983712;28;20096;-54
2022/08/02 09:00:24;;;;;;;5.97;2.65;;;21.80;99.90;;;;;;5001865;28;20033;-50
2022/08/02 09:02:50;;;;;;;7.13;3.25;;;21.90;99.90;;;;;;4967935;28;20068;-50
2022/08/02 09:05:16;;;;;;;7.50;3.15;;;22.00;99.90;;;;;;4999472;28;20069;-52
2022/08/02 09:07:45;;;;;;;8.20;3.38;;;22.20;99.90;;;;;;5002204;28;20088;-49
2022/08/02 09:10:30;;;;;;;7.10;2.65;;;22.20;99.90;;;;;;5000609;28;20037;-51
2022/08/02 09:13:19;;;;;;;8.13;3.35;;;22.30;99.90;;;;;;5002333;28;20076;-49
2022/08/02 09:15:53;;;;;;;6.07;3.10;;;22.50;99.90;;;;;;5002595;28;20211;-50
2022/08/02 09:18:18;;;;;;;;;;;22.60;99.90;;;;;;5002073;28;20668;-52
2022/08/02 09:20:56;;;;;;;5.75;3.28;;;22.80;99.90;;;;;;5002160;28;19917;-50
2022/08/02 09:23:23;;;;;;;11.63;3.42;;;22.90;99.90;;;;;;5001674;28;20042;-52
2022/08/02 09:25:57;;;;;;;6.75;2.70;;;23.10;99.90;;;;;;5003653;28;20030;-54
2022/08/02 09:28:32;;;;;;;6.68;2.90;;;23.20;99.90;;;;;;4984904;28;20129;-53
2022/08/02 09:31:06;;;;;;;6.55;2.78;;;23.30;99.90;;;;;;5002336;28;20125;-49
2022/08/02 09:33:32;;;;;;;7.40;2.70;;;23.50;99.90;;;;;;5002234;28;20065;-50
2022/08/02 09:36:04;;;;;;;6.32;2.70;;;23.70;99.90;;;;;;5001442;28;20104;-50
2022/08/02 09:38:31;;;;;;;7.28;2.85;;;23.90;99.90;;;;;;4991455;28;20497;-53
2022/08/02 09:40:57;;;;;;;7.03;2.95;;;24.00;99.90;;;;;;4995884;28;20104;-54
2022/08/02 09:43:41;;;;;;;5.88;2.80;;;23.90;99.90;;;;;;4998675;28;20076;-52
2022/08/02 09:46:23;;;;;;;10.07;3.40;;;24.10;99.90;;;;;;5000158;28;20473;-54
2022/08/02 09:48:50;;;;;;;5.82;2.90;;;24.10;99.90;;;;;;4999249;28;20469;-51
2022/08/02 09:51:26;;;;;;;5.68;2.72;;;24.10;99.90;;;;;;5001458;28;20048;-50
2022/08/02 09:53:55;;;;;;;5.50;2.50;;;24.20;99.90;;;;;;5000711;28;20132;-50
2022/08/02 09:56:25;;;;;;;5.55;2.78;;;24.00;99.90;;;;;;5001037;28;20050;-54
2022/08/02 09:58:53;;;;;;;6.82;2.80;;;23.70;99.90;;;;;;5000141;28;20049;-51
2022/08/02 10:01:20;;;;;;;8.07;2.90;;;23.60;99.90;;;;;;5000156;28;20037;-50
2022/08/02 10:04:00;;;;;;;7.22;2.70;;;23.70;99.90;;;;;;5000607;28;20022;-50
2022/08/02 10:06:27;;;;;;;6.60;2.70;;;24.10;99.90;;;;;;5001426;28;20121;-52
2022/08/02 10:08:53;;;;;;;7.07;2.83;;;24.20;99.90;;;;;;5001864;28;20070;-51
2022/08/02 10:11:23;;;;;;;6.63;2.55;;;24.40;99.90;;;;;;5000227;28;20049;-53
2022/08/02 10:13:50;;;;;;;8.80;2.83;;;24.50;99.90;;;;;;5000540;28;20034;-53
2022/08/02 10:16:22;;;;;;;7.75;2.67;;;24.70;99.90;;;;;;5001438;28;20116;-53
2022/08/02 10:18:53;;;;;;;5.97;2.38;;;24.90;99.90;;;;;;5000403;28;20088;-54
2022/08/02 10:21:29;;;;;;;5.88;2.05;;;25.00;99.90;;;;;;5000150;28;20038;-54
2022/08/02 10:24:07;;;;;;;3.95;1.65;;;25.00;99.90;;;;;;5000873;28;20437;-49
2022/08/02 10:26:34;;;;;;;3.78;1.52;;;25.20;99.90;;;;;;4999660;28;20062;-53
2022/08/02 10:29:01;;;;;;;3.35;1.40;;;25.10;99.20;;;;;;4999051;28;20030;-56
2022/08/02 10:31:42;;;;;;;4.10;1.63;;;25.20;99.40;;;;;;4998858;28;20038;-50
2022/08/02 10:34:11;;;;;;;4.18;1.42;;;25.30;99.20;;;;;;4999583;28;20034;-54
2022/08/02 10:36:39;;;;;;;4.10;1.52;;;25.20;99.10;;;;;;5002732;28;20125;-53
2022/08/02 10:39:05;;;;;;;6.68;1.92;;;25.10;99.70;;;;;;5007227;28;20038;-49
2022/08/02 10:41:48;;;;;;;6.15;2.85;;;25.20;99.90;;;;;;5008070;28;20378;-49
2022/08/02 10:44:20;;;;;;;6.15;2.85;;;25.20;99.90;;;;;;5008449;28;20488;-54
2022/08/02 10:46:45;;;;;;;6.70;3.92;;;25.20;99.90;;;;;;5007923;28;20045;-50
2022/08/02 10:49:14;;;;;;;6.57;3.80;;;25.10;99.90;;;;;;5011059;28;20499;-50
2022/08/02 10:52:01;;;;;;;6.93;3.55;;;25.20;99.90;;;;;;5010362;28;20113;-50
2022/08/02 10:54:39;;;;;;;6.70;3.47;;;25.40;99.90;;;;;;5011042;28;20092;-55
2022/08/02 10:57:33;;;;;;;6.65;3.80;;;25.50;99.90;;;;;;4993373;28;20042;-51
2022/08/02 11:00:26;;;;;;;6.50;3.42;;;25.60;99.90;;;;;;5009151;28;20156;-53
2022/08/02 11:02:52;;;;;;;8.02;4.28;;;25.70;99.90;;;;;;5010504;28;20045;-50
2022/08/02 11:05:30;;;;;;;7.65;3.80;;;25.60;99.90;;;;;;5011095;28;20116;-54
2022/08/02 11:07:56;;;;;;;7.05;3.67;;;25.80;99.90;;;;;;5014879;28;20465;-54
2022/08/02 11:10:25;;;;;;;7.78;4.30;;;25.90;99.90;;;;;;5015008;28;20091;-50
2022/08/02 11:13:00;;;;;;;6.55;4.03;;;25.70;99.90;;;;;;5014685;28;20063;-49
2022/08/02 11:15:27;;;;;;;5.35;3.47;;;25.70;99.90;;;;;;5014135;28;20060;-55
2022/08/02 11:18:00;;;;;;;7.20;3.83;;;25.90;99.90;;;;;;5013431;28;20100;-53
2022/08/02 11:20:26;;;;;;;5.68;3.40;;;25.90;99.90;;;;;;5015085;28;20036;-51
2022/08/02 11:22:54;;;;;;;7.38;3.75;;;25.80;99.90;;;;;;4995998;28;20033;-52
2022/08/02 11:25:22;;;;;;;7.38;3.50;;;26.00;99.90;;;;;;5014814;28;20030;-54
2022/08/02 11:27:53;;;;;;;6.22;3.60;;;26.20;99.90;;;;;;5016972;28;20034;-52
2022/08/02 11:30:19;;;;;;;6.32;3.50;;;26.30;99.90;;;;;;5015411;28;20041;-50
2022/08/02 11:32:45;;;;;;;8.23;3.40;;;26.20;99.90;;;;;;5016526;28;20507;-52
2022/08/02 11:35:11;;;;;;;6.30;3.45;;;26.30;99.90;;;;;;5014188;28;20038;-56
2022/08/02 11:37:39;;;;;;;4.40;2.45;;;26.20;99.90;;;;;;5008749;28;20030;-47
2022/08/02 11:40:15;;;;;;;4.53;2.50;;;26.20;99.90;;;;;;5013455;28;20034;-53
2022/08/02 11:42:43;;;;;;;4.50;2.40;;;26.40;99.60;;;;;;5014585;28;20033;-54
2022/08/02 11:45:11;;;;;;;4.10;1.85;;;26.30;99.90;;;;;;5014239;28;20393;-53
2022/08/02 11:47:47;;;;;;;5.40;2.33;;;26.30;99.30;;;;;;5013715;28;20046;-53
2022/08/02 11:50:14;;;;;;;4.05;2.08;;;26.50;99.60;;;;;;5014505;28;20129;-53
2022/08/02 11:52:40;;;;;;;4.85;2.47;;;26.70;99.90;;;;;;5014343;28;20533;-54
2022/08/02 11:55:07;;;;;;;5.18;2.53;;;26.60;99.80;;;;;;4993616;28;20117;-54
2022/08/02 11:57:33;;;;;;;5.75;2.65;;;26.60;99.70;;;;;;4994333;28;20045;-53
2022/08/02 11:59:59;;;;;;;5.07;2.55;;;26.70;99.90;;;;;;4994490;28;20069;-54
2022/08/02 12:02:28;;;;;;;5.85;2.38;;;26.70;99.80;;;;;;5012612;28;20034;-52
2022/08/02 12:04:59;;;;;;;3.78;2.20;;;26.70;99.20;;;;;;5013846;28;20046;-51
2022/08/02 12:07:30;;;;;;;3.80;1.98;;;26.70;99.40;;;;;;5013142;28;20042;-53
2022/08/02 12:10:05;;;;;;;5.18;2.20;;;26.90;99.80;;;;;;5013928;28;20050;-51
2022/08/02 12:12:31;;;;;;;4.47;2.42;;;26.90;99.90;;;;;;5015770;28;20037;-51
2022/08/02 12:14:57;;;;;;;4.68;2.42;;;26.80;99.50;;;;;;5015173;28;20425;-51
2022/08/02 12:20:09;;;;;;;4.63;2.78;;;27.00;99.60;;;;;;5013660;28;20073;-52
2022/08/02 12:22:37;;;;;;;6.38;3.30;;;27.10;99.30;;;;;;5013767;28;20076;-45
2022/08/02 12:25:16;;;;;;;7.93;2.80;;;26.70;98.70;;;;;;5013434;28;20044;-51
2022/08/02 12:27:42;;;;;;;5.50;3.03;;;26.70;99.90;;;;;;4994213;28;20041;-51
2022/08/02 12:30:14;;;;;;;6.30;3.60;;;26.40;99.90;;;;;;4993946;28;20045;-50
2022/08/02 12:32:40;;;;;;;6.47;3.47;;;26.20;99.80;;;;;;4994078;28;20398;-52
2022/08/02 12:35:12;;;;;;;6.68;2.97;;;26.00;99.90;;;;;;4993817;28;20046;-49
2022/08/02 12:37:43;;;;;;;6.50;3.83;;;26.00;99.90;;;;;;5012985;28;20084;-51
2022/08/02 12:40:31;;;;;;;9.70;3.80;;;25.90;99.90;;;;;;5013148;28;20038;-52
2022/08/02 12:43:05;;;;;;;6.15;3.75;;;25.80;99.90;;;;;;5011936;28;20477;-46
2022/08/02 12:45:47;;;;;;;7.60;4.70;;;25.80;99.90;;;;;;5011970;28;20049;-50
2022/08/02 12:48:13;;;;;;;8.00;4.22;;;25.70;99.90;;;;;;5012313;28;20075;-51
2022/08/02 12:50:39;;;;;;;8.50;5.18;;;25.80;99.90;;;;;;5013057;28;20061;-51
2022/08/02 12:53:10;;;;;;;7.28;5.03;;;25.90;99.90;;;;;;5013127;28;20080;-50
2022/08/02 12:55:55;;;;;;;10.43;5.25;;;25.90;99.90;;;;;;5012661;28;20049;-51
2022/08/02 12:58:21;;;;;;;6.85;5.30;;;25.90;99.90;;;;;;5010907;28;20501;-53
2022/08/02 13:00:57;;;;;;;7.78;4.70;;;26.00;99.90;;;;;;5013430;28;20038;-50
2022/08/02 13:03:23;;;;;;;10.32;5.03;;;26.10;99.90;;;;;;4995568;28;20038;-52